TimeEDT,TemperatureF,Dew PointF,Humidity,Sea Level PressureIn,VisibilityMPH,Wind Direction,Wind SpeedMPH,Gust SpeedMPH,PrecipitationIn,Events,Conditions,WindDirDegrees,DateUTC
12:15 AM,63.1,58.1,84,30.16,7.0,Calm,Calm,-,N/A,,Overcast,0,2012-10-04 04:15:00
12:35 AM,63.0,57.7,83,30.15,7.0,SSE,3.5,-,N/A,,Overcast,160,2012-10-04 04:35:00
12:55 AM,63.0,57.9,84,30.16,10.0,South,3.5,-,N/A,,Overcast,170,2012-10-04 04:55:00
1:15 AM,63.0,57.7,83,30.16,10.0,SSE,3.5,-,N/A,,Overcast,160,2012-10-04 05:15:00
1:35 AM,63.0,57.7,83,30.16,7.0,SSE,3.5,-,N/A,,Overcast,160,2012-10-04 05:35:00
1:55 AM,63.0,57.7,83,30.15,7.0,SSE,5.8,-,N/A,,Overcast,150,2012-10-04 05:55:00
2:15 AM,63.0,57.7,83,30.15,10.0,SSE,4.6,-,N/A,,Overcast,160,2012-10-04 06:15:00
2:35 AM,63.0,57.7,83,30.15,10.0,Calm,Calm,-,N/A,,Overcast,0,2012-10-04 06:35:00
2:55 AM,62.8,57.6,83,30.14,10.0,South,3.5,-,N/A,,Overcast,170,2012-10-04 06:55:00
3:15 AM,63.0,57.7,83,30.13,10.0,SSE,3.5,-,N/A,,Overcast,160,2012-10-04 07:15:00
3:35 AM,63.0,57.6,82,30.14,10.0,Calm,Calm,-,N/A,,Overcast,0,2012-10-04 07:35:00
3:55 AM,63.0,57.6,82,30.15,10.0,Calm,Calm,-,N/A,,Overcast,0,2012-10-04 07:55:00
4:15 AM,62.8,57.6,83,30.15,10.0,Calm,Calm,-,N/A,,Overcast,0,2012-10-04 08:15:00
4:35 AM,63.0,57.7,83,30.15,10.0,Calm,Calm,-,N/A,,Overcast,0,2012-10-04 08:35:00
4:55 AM,62.8,57.4,82,30.15,10.0,SSE,4.6,-,N/A,,Overcast,160,2012-10-04 08:55:00
5:15 AM,63.0,57.6,82,30.15,10.0,Calm,Calm,-,N/A,,Overcast,0,2012-10-04 09:15:00
5:35 AM,63.0,57.4,82,30.15,10.0,South,3.5,-,N/A,,Overcast,170,2012-10-04 09:35:00
5:55 AM,62.8,57.4,82,30.15,10.0,South,3.5,-,N/A,,Overcast,170,2012-10-04 09:55:00
6:15 AM,62.8,57.4,82,30.14,10.0,SSE,5.8,-,N/A,,Overcast,150,2012-10-04 10:15:00
6:35 AM,63.0,57.4,82,30.14,10.0,South,4.6,-,N/A,,Overcast,170,2012-10-04 10:35:00
6:55 AM,62.8,57.2,82,30.14,10.0,South,4.6,-,N/A,,Overcast,170,2012-10-04 10:55:00
7:15 AM,63.0,57.2,81,30.15,10.0,South,4.6,-,N/A,,Overcast,170,2012-10-04 11:15:00
7:35 AM,63.0,57.2,81,30.15,10.0,SSE,3.5,-,N/A,,Overcast,160,2012-10-04 11:35:00
7:55 AM,63.1,57.2,81,30.15,10.0,South,4.6,-,N/A,,Overcast,170,2012-10-04 11:55:00
8:15 AM,63.5,57.2,80,30.15,10.0,South,6.9,-,N/A,,Overcast,170,2012-10-04 12:15:00
8:35 AM,63.1,57.2,81,30.15,10.0,SSE,5.8,-,N/A,,Overcast,160,2012-10-04 12:35:00
8:55 AM,63.1,57.2,81,30.15,5.0,SSE,6.9,-,N/A,,Haze,160,2012-10-04 12:55:00
9:15 AM,63.0,57.2,81,30.14,4.0,SSE,6.9,-,N/A,,Light Drizzle,160,2012-10-04 13:15:00
9:35 AM,63.0,57.2,81,30.14,7.0,South,5.8,-,N/A,,Overcast,170,2012-10-04 13:35:00
9:55 AM,63.3,57.2,80,30.14,10.0,South,6.9,-,N/A,,Overcast,170,2012-10-04 13:55:00
10:15 AM,63.7,57.7,81,30.14,10.0,SSE,6.9,-,N/A,,Overcast,150,2012-10-04 14:15:00
10:35 AM,63.5,57.6,81,30.14,4.0,SSE,4.6,-,N/A,,Haze,160,2012-10-04 14:35:00
11:15 AM,64.4,58.1,80,30.12,10.0,SSE,8.1,-,N/A,,Overcast,150,2012-10-04 15:15:00
11:35 AM,64.6,57.7,78,30.12,10.0,South,8.1,-,N/A,,Overcast,170,2012-10-04 15:35:00
11:55 AM,64.4,57.6,78,30.12,10.0,SSE,6.9,-,N/A,,Overcast,160,2012-10-04 15:55:00
12:35 PM,64.4,58.3,80,30.12,10.0,SSE,4.6,-,N/A,,Overcast,160,2012-10-04 16:35:00
12:55 PM,64.4,58.1,80,30.11,10.0,SSE,8.1,-,N/A,,Overcast,160,2012-10-04 16:55:00
1:15 PM,64.6,58.1,79,30.10,10.0,South,4.6,-,N/A,,Overcast,190,2012-10-04 17:15:00
1:35 PM,64.6,58.1,79,30.09,10.0,South,3.5,-,N/A,Rain,Rain,180,2012-10-04 17:35:00
1:55 PM,65.3,58.6,79,30.09,10.0,SSE,6.9,-,N/A,,Light Drizzle,160,2012-10-04 17:55:00
2:15 PM,65.3,58.8,80,30.08,10.0,South,3.5,-,N/A,,Light Drizzle,180,2012-10-04 18:15:00
2:35 PM,65.3,59.0,80,30.08,10.0,SSE,3.5,-,N/A,,Drizzle,160,2012-10-04 18:35:00
2:55 PM,64.9,59.0,81,30.07,5.0,SSE,4.6,-,N/A,,Light Drizzle,160,2012-10-04 18:55:00
3:15 PM,64.4,58.6,82,30.07,4.0,South,5.8,-,N/A,,Light Drizzle,170,2012-10-04 19:15:00
3:35 PM,64.2,58.3,81,30.06,5.0,SSE,5.8,-,N/A,,Drizzle,160,2012-10-04 19:35:00
3:55 PM,64.0,58.3,82,30.06,5.0,SSE,5.8,-,N/A,Rain,Light Rain,160,2012-10-04 19:55:00
4:15 PM,64.0,58.1,81,30.05,10.0,SSE,5.8,-,N/A,Rain,Light Rain,160,2012-10-04 20:15:00
4:35 PM,63.9,58.1,81,30.05,10.0,SSE,5.8,-,N/A,Rain,Rain,160,2012-10-04 20:35:00
4:55 PM,63.7,58.1,82,30.03,10.0,SE,6.9,-,N/A,Rain,Rain,130,2012-10-04 20:55:00
5:15 PM,63.5,58.1,83,30.03,10.0,SSE,4.6,-,N/A,Rain,Rain,160,2012-10-04 21:15:00
5:35 PM,63.5,58.1,83,30.04,10.0,South,4.6,-,N/A,Rain,Rain,190,2012-10-04 21:35:00
5:55 PM,63.5,58.1,83,30.03,10.0,SSE,8.1,-,N/A,Rain,Rain,160,2012-10-04 21:55:00
6:15 PM,63.5,58.1,83,30.03,5.0,SSW,4.6,-,N/A,Rain,Rain,200,2012-10-04 22:15:00
6:35 PM,63.5,58.1,83,30.02,10.0,South,5.8,-,N/A,Rain,Rain,170,2012-10-04 22:35:00
6:55 PM,63.5,58.1,83,30.03,10.0,South,4.6,-,N/A,,Overcast,170,2012-10-04 22:55:00
7:15 PM,63.5,58.1,83,30.02,10.0,Calm,Calm,-,N/A,,Overcast,0,2012-10-04 23:15:00
7:35 PM,63.5,58.5,84,30.03,10.0,Calm,Calm,-,N/A,,Overcast,0,2012-10-04 23:35:00
7:55 PM,62.2,57.2,84,30.03,5.0,Calm,Calm,-,N/A,,Haze,0,2012-10-04 23:55:00
8:15 PM,61.9,57.0,84,30.03,10.0,Calm,Calm,-,N/A,,Overcast,0,2012-10-05 00:15:00
8:35 PM,62.6,57.6,84,30.03,10.0,South,3.5,-,N/A,,Overcast,180,2012-10-05 00:35:00
8:55 PM,61.2,56.1,83,30.04,1.8,Calm,Calm,-,N/A,,Haze,0,2012-10-05 00:55:00
9:15 PM,61.7,56.7,84,30.03,0.8,Calm,Calm,-,N/A,,Haze,0,2012-10-05 01:15:00
9:35 PM,60.3,55.4,84,30.03,7.0,SSE,6.9,-,N/A,,Scattered Clouds,160,2012-10-05 01:35:00
9:55 PM,60.3,55.4,84,30.04,10.0,SSE,4.6,-,N/A,,Clear,160,2012-10-05 01:55:00
10:15 PM,59.4,54.3,83,30.03,7.0,South,3.5,-,N/A,,Clear,180,2012-10-05 02:15:00
10:35 PM,60.1,55.2,84,30.03,10.0,South,3.5,-,N/A,,Clear,180,2012-10-05 02:35:00
10:55 PM,59.7,54.7,83,30.03,10.0,Calm,Calm,-,N/A,,Clear,0,2012-10-05 02:55:00
11:15 PM,59.5,54.5,83,30.02,10.0,SSW,3.5,-,N/A,,Clear,200,2012-10-05 03:15:00
11:35 PM,58.3,53.1,83,30.02,5.0,SSW,3.5,-,N/A,,Haze,210,2012-10-05 03:35:00
11:55 PM,57.9,53.1,84,30.02,7.0,South,3.5,-,N/A,,Clear,190,2012-10-05 03:55:00